Lake City, California
Current Conditions -  °F | °C
As of 4:55 PM on Saturday 25 Oct 2014 (Local Time) from KAAT Reporting Station
Scattered Clouds Scattered Clouds  
Wind Chill: 55°   Ceiling: Unl
Heat Index: 55°   Visibility: 10mi
Dew Point: 35°   Wind: 16mph
Humidity: 47%   Direction: 230°SW
Pressure: 29.92"   Gusts: 38mph
Location:  41.64°N, 120.22°W
Report Text: KAAT 252355Z AUTO 23014G33KT 10SM FEW050 SCT120 13/02 A2992 RMK AO2 PK WND 23033/2346 SLP111 T01280017 10161 20100 53016 $
Loading
Personal Weather Stations






























Interactive Weather Map
Tropical Storm Tracking
New forecast layout! Learn more

10-Day Weather Forecast

Advertisements
Track Severe Weather on mobile